Time;durP1;ratioP1;P1;durP2;ratioP2;P2;SDS_P1;SDS_P2;PMS_P1;PMS_P2;Temp;Humidity;BMP_temperature;BMP_pressure;BME280_temperature;BME280_humidity;BME280_pressure;Samples;Min_cycle;Max_cycle;Signal;HPM_P1;HPM_P2
2022/07/03 00:00:36;;;;;;;33.25;8.43;;;;;;;;;;5033424;28;20045;-68
2022/07/03 00:03:41;;;;;;;29.05;8.23;;;;;;;;;;5033270;28;20033;-69
2022/07/03 00:06:45;;;;;;;34.53;9.23;;;;;;;;;;5033575;28;20044;-69
2022/07/03 00:09:49;;;;;;;30.30;9.30;;;;;;;;;;5033395;28;20054;-69
2022/07/03 00:12:54;;;;;;;29.05;8.77;;;;;;;;;;5032581;28;20038;-69
2022/07/03 00:15:58;;;;;;;25.88;9.85;;;;;;;;;;5033067;28;20430;-68
2022/07/03 00:19:03;;;;;;;27.25;9.63;;;;;;;;;;5033433;28;20532;-69
2022/07/03 00:22:11;;;;;;;30.08;9.90;;;;;;;;;;5033404;28;20067;-68
2022/07/03 00:25:15;;;;;;;35.50;11.45;;;;;;;;;;5033443;28;20496;-69
2022/07/03 00:28:20;;;;;;;29.05;10.35;;;;;;;;;;5033593;28;20052;-69
2022/07/03 00:31:24;;;;;;;23.45;10.15;;;;;;;;;;5033085;28;20040;-68
2022/07/03 00:34:29;;;;;;;30.20;9.95;;;;;;;;;;5033044;28;20056;-69
2022/07/03 00:37:33;;;;;;;26.27;9.32;;;;;;;;;;5032903;28;20038;-69
2022/07/03 00:40:38;;;;;;;28.17;9.68;;;;;;;;;;5032950;28;20034;-68
2022/07/03 00:43:42;;;;;;;26.38;8.60;;;;;;;;;;5033146;28;20037;-69
2022/07/03 00:46:48;;;;;;;32.97;10.15;;;;;;;;;;5033063;28;20059;-69
2022/07/03 00:49:53;;;;;;;26.95;9.43;;;;;;;;;;5033078;28;20041;-69
2022/07/03 00:52:58;;;;;;;21.88;9.10;;;;;;;;;;5032697;28;20132;-68
2022/07/03 00:56:04;;;;;;;19.90;8.90;;;;;;;;;;5032559;28;20045;-69
2022/07/03 00:59:08;;;;;;;22.92;9.25;;;;;;;;;;5032372;28;20498;-69
2022/07/03 01:02:19;;;;;;;34.72;9.40;;;;;;;;;;5032526;28;20105;-68
2022/07/03 01:05:27;;;;;;;23.25;8.90;;;;;;;;;;5032307;28;20041;-68
2022/07/03 01:08:48;;;;;;;21.75;8.90;;;;;;;;;;5032331;28;20042;-69
2022/07/03 01:11:59;;;;;;;27.13;10.07;;;;;;;;;;5032435;28;20052;-69
2022/07/03 01:15:10;;;;;;;38.17;10.07;;;;;;;;;;5032034;28;20064;-69
2022/07/03 01:18:20;;;;;;;30.23;10.57;;;;;;;;;;5032315;28;20048;-68
2022/07/03 01:21:43;;;;;;;32.83;10.50;;;;;;;;;;5032115;28;20048;-68
2022/07/03 01:25:04;;;;;;;30.67;9.32;;;;;;;;;;5031660;28;20040;-69
2022/07/03 01:28:08;;;;;;;29.83;9.50;;;;;;;;;;5031915;28;20041;-69
2022/07/03 01:31:22;;;;;;;29.42;8.75;;;;;;;;;;5031665;28;20029;-69
2022/07/03 01:34:30;;;;;;;29.92;8.90;;;;;;;;;;5031729;28;20048;-68
2022/07/03 01:37:35;;;;;;;27.35;8.07;;;;;;;;;;5031873;28;20104;-68
2022/07/03 01:40:40;;;;;;;22.23;8.43;;;;;;;;;;5031873;28;20058;-69
2022/07/03 01:43:49;;;;;;;29.88;9.02;;;;;;;;;;5031913;28;20416;-68
2022/07/03 01:46:58;;;;;;;29.30;9.68;;;;;;;;;;5031476;28;20045;-69
2022/07/03 01:50:02;;;;;;;24.63;8.95;;;;;;;;;;5031846;28;20044;-68
2022/07/03 01:53:07;;;;;;;20.17;9.05;;;;;;;;;;5031501;28;20386;-68
2022/07/03 01:56:12;;;;;;;22.35;10.07;;;;;;;;;;5031271;28;20500;-69
2022/07/03 01:59:16;;;;;;;26.33;9.73;;;;;;;;;;5031668;28;20393;-69
2022/07/03 02:02:25;;;;;;;27.35;9.20;;;;;;;;;;5031362;28;20048;-69
2022/07/03 02:05:42;;;;;;;29.90;10.10;;;;;;;;;;5031550;28;20037;-69
2022/07/03 02:09:06;;;;;;;23.02;8.35;;;;;;;;;;5031152;28;20513;-69
2022/07/03 02:12:12;;;;;;;28.52;9.13;;;;;;;;;;5031581;28;20052;-69
2022/07/03 02:15:25;;;;;;;20.80;8.35;;;;;;;;;;5031223;28;20548;-69
2022/07/03 02:18:32;;;;;;;29.58;8.45;;;;;;;;;;5031201;28;20041;-69
2022/07/03 02:21:38;;;;;;;22.30;8.05;;;;;;;;;;5031445;28;20504;-69
2022/07/03 02:24:47;;;;;;;23.50;7.85;;;;;;;;;;5031242;28;20049;-69
2022/07/03 02:27:58;;;;;;;15.55;7.65;;;;;;;;;;5031178;28;20049;-69
2022/07/03 02:31:03;;;;;;;30.48;9.25;;;;;;;;;;5031395;28;20477;-69
2022/07/03 02:34:07;;;;;;;28.13;8.93;;;;;;;;;;5031372;28;20045;-68
2022/07/03 02:37:19;;;;;;;24.10;8.75;;;;;;;;;;5031766;28;20044;-69
2022/07/03 02:40:33;;;;;;;24.25;8.95;;;;;;;;;;5032604;28;20045;-69
2022/07/03 02:43:49;;;;;;;27.83;8.70;;;;;;;;;;5010405;28;20045;-69
2022/07/03 02:47:07;;;;;;;20.83;8.23;;;;;;;;;;5033522;28;20484;-69
2022/07/03 02:50:13;;;;;;;25.75;8.50;;;;;;;;;;5032243;28;20048;-69
2022/07/03 02:53:34;;;;;;;33.58;8.65;;;;;;;;;;5032694;28;20041;-68
2022/07/03 02:56:38;;;;;;;;;;;;;;;;;;5033603;28;20038;-70
2022/07/03 02:59:42;;;;;;;24.60;8.43;;;;;;;;;;5031405;28;19920;-69
2022/07/03 03:02:56;;;;;;;18.55;7.68;;;;;;;;;;5032537;28;20037;-69
2022/07/03 03:06:14;;;;;;;27.00;9.57;;;;;;;;;;5031912;28;20041;-68
2022/07/03 03:09:21;;;;;;;25.80;8.55;;;;;;;;;;5031185;28;20049;-69
2022/07/03 03:12:31;;;;;;;33.92;9.18;;;;;;;;;;5030710;28;20037;-69
2022/07/03 03:15:36;;;;;;;24.20;8.38;;;;;;;;;;5030357;28;20045;-69
2022/07/03 03:18:41;;;;;;;33.17;8.77;;;;;;;;;;5030950;28;20045;-69
2022/07/03 03:22:21;;;;;;;52.45;9.90;;;;;;;;;;5030551;28;20038;-68
2022/07/03 03:25:25;;;;;;;34.78;9.43;;;;;;;;;;4972925;28;20041;-68
2022/07/03 03:28:30;;;;;;;24.05;9.43;;;;;;;;;;5030763;28;20042;-69
2022/07/03 03:31:34;;;;;;;29.90;8.75;;;;;;;;;;5030680;28;20496;-69
2022/07/03 03:34:39;;;;;;;28.88;9.23;;;;;;;;;;5030461;28;20412;-69
2022/07/03 03:37:45;;;;;;;38.42;9.48;;;;;;;;;;5030232;28;20034;-69
2022/07/03 03:40:50;;;;;;;32.05;9.75;;;;;;;;;;5030284;28;20389;-69
2022/07/03 03:43:54;;;;;;;45.83;9.98;;;;;;;;;;5030538;28;20040;-69
2022/07/03 03:46:58;;;;;;;27.83;9.52;;;;;;;;;;5030509;28;20050;-69
2022/07/03 03:50:03;;;;;;;28.92;9.68;;;;;;;;;;5033994;28;20038;-69
2022/07/03 03:53:07;;;;;;;36.25;11.05;;;;;;;;;;5033669;28;20505;-69
2022/07/03 03:56:14;;;;;;;39.42;10.70;;;;;;;;;;5033600;28;20044;-69
2022/07/03 03:59:19;;;;;;;31.45;10.80;;;;;;;;;;5034139;28;20120;-68
2022/07/03 04:02:23;;;;;;;54.42;12.55;;;;;;;;;;5033922;28;20049;-69
2022/07/03 04:05:28;;;;;;;42.83;11.05;;;;;;;;;;5033539;28;20041;-69
2022/07/03 04:08:32;;;;;;;32.47;9.73;;;;;;;;;;5033539;28;20548;-69
2022/07/03 04:11:36;;;;;;;34.80;11.13;;;;;;;;;;5033756;28;20161;-69
2022/07/03 04:14:41;;;;;;;31.10;10.45;;;;;;;;;;5033292;28;20068;-68
2022/07/03 04:17:45;;;;;;;28.30;9.98;;;;;;;;;;5033488;28;20041;-69
2022/07/03 04:20:50;;;;;;;30.45;9.40;;;;;;;;;;5033309;28;20050;-69
2022/07/03 04:23:54;;;;;;;33.47;9.95;;;;;;;;;;5033464;28;20579;-69
2022/07/03 04:26:58;;;;;;;38.05;10.00;;;;;;;;;;5033339;28;20045;-69
2022/07/03 04:30:03;;;;;;;32.00;10.38;;;;;;;;;;5033392;28;20040;-69
2022/07/03 04:33:07;;;;;;;41.63;10.98;;;;;;;;;;5033387;28;20049;-69
2022/07/03 04:36:11;;;;;;;38.38;11.63;;;;;;;;;;5032946;28;20064;-69
2022/07/03 04:39:16;;;;;;;33.38;10.18;;;;;;;;;;5032944;28;20045;-68
2022/07/03 04:42:20;;;;;;;79.60;13.13;;;;;;;;;;5033060;28;20048;-69
2022/07/03 04:45:24;;;;;;;69.95;11.15;;;;;;;;;;5032978;28;20048;-69
2022/07/03 04:48:29;;;;;;;51.42;11.32;;;;;;;;;;5032967;28;20049;-69
2022/07/03 04:51:33;;;;;;;58.47;10.85;;;;;;;;;;5033080;28;20041;-69
2022/07/03 04:54:37;;;;;;;30.95;10.07;;;;;;;;;;5032612;28;20601;-69
2022/07/03 04:57:42;;;;;;;33.75;10.80;;;;;;;;;;5009060;28;20052;-68
2022/07/03 05:00:46;;;;;;;33.97;11.18;;;;;;;;;;5019860;28;20547;-68
2022/07/03 05:03:51;;;;;;;36.33;10.57;;;;;;;;;;5032617;28;20048;-69
2022/07/03 05:06:55;;;;;;;29.85;11.00;;;;;;;;;;5020427;28;20048;-69
2022/07/03 05:09:59;;;;;;;33.17;10.25;;;;;;;;;;5032173;28;20048;-69
2022/07/03 05:13:04;;;;;;;33.13;10.80;;;;;;;;;;5032343;28;20049;-69
2022/07/03 05:16:09;;;;;;;30.23;10.75;;;;;;;;;;5031285;28;20052;-69
2022/07/03 05:19:13;;;;;;;35.25;11.18;;;;;;;;;;5032258;28;20064;-69
2022/07/03 05:22:17;;;;;;;40.85;11.38;;;;;;;;;;5032200;28;20389;-69
2022/07/03 05:25:22;;;;;;;51.75;12.57;;;;;;;;;;5032024;28;20128;-68
2022/07/03 05:28:26;;;;;;;69.88;12.77;;;;;;;;;;5031437;28;20508;-67
2022/07/03 05:31:31;;;;;;;49.13;13.13;;;;;;;;;;5019831;28;20045;-68
2022/07/03 05:34:35;;;;;;;46.42;13.30;;;;;;;;;;5031593;28;20052;-68
2022/07/03 05:37:39;;;;;;;34.63;11.65;;;;;;;;;;5031832;28;20052;-67
2022/07/03 05:40:43;;;;;;;37.95;12.50;;;;;;;;;;5031739;28;20044;-68
2022/07/03 05:43:48;;;;;;;32.03;11.60;;;;;;;;;;5031452;28;20052;-67
2022/07/03 05:46:52;;;;;;;37.47;12.18;;;;;;;;;;5031624;28;20053;-68
2022/07/03 05:49:56;;;;;;;42.78;11.23;;;;;;;;;;5031711;28;20500;-68
2022/07/03 05:53:01;;;;;;;27.65;10.93;;;;;;;;;;5031592;28;20048;-67
2022/07/03 05:56:05;;;;;;;31.50;11.45;;;;;;;;;;5031183;28;20056;-67
2022/07/03 05:59:09;;;;;;;48.55;12.18;;;;;;;;;;5031245;28;20397;-67
2022/07/03 06:02:14;;;;;;;44.72;11.63;;;;;;;;;;5031567;28;20048;-67
2022/07/03 06:05:19;;;;;;;38.88;10.57;;;;;;;;;;5031267;28;20041;-68
2022/07/03 06:08:23;;;;;;;38.85;10.60;;;;;;;;;;5031434;28;20379;-67
2022/07/03 06:11:27;;;;;;;23.10;9.55;;;;;;;;;;5031015;28;20056;-67
2022/07/03 06:14:31;;;;;;;25.25;9.63;;;;;;;;;;5030902;28;20415;-67
2022/07/03 06:17:36;;;;;;;35.40;10.45;;;;;;;;;;5030959;28;20033;-68
2022/07/03 06:20:40;;;;;;;32.22;8.85;;;;;;;;;;5031296;28;20044;-67
2022/07/03 06:23:44;;;;;;;23.23;7.22;;;;;;;;;;5030897;28;20041;-67
2022/07/03 06:26:49;;;;;;;24.02;9.13;;;;;;;;;;5030847;28;20033;-68
2022/07/03 06:29:53;;;;;;;29.92;7.60;;;;;;;;;;5030935;28;20132;-68
2022/07/03 06:32:58;;;;;;;23.48;8.43;;;;;;;;;;5030947;28;20038;-68
2022/07/03 06:36:02;;;;;;;18.85;7.45;;;;;;;;;;5031059;28;20049;-68
2022/07/03 06:39:07;;;;;;;35.05;8.50;;;;;;;;;;5031062;28;20072;-68
2022/07/03 06:42:11;;;;;;;38.65;8.27;;;;;;;;;;5030991;28;20409;-68
2022/07/03 06:45:15;;;;;;;29.55;8.55;;;;;;;;;;5030692;28;20041;-68
2022/07/03 06:48:20;;;;;;;24.67;7.72;;;;;;;;;;5031049;28;20037;-68
2022/07/03 06:51:24;;;;;;;34.45;7.53;;;;;;;;;;5030934;28;20044;-68
2022/07/03 06:54:28;;;;;;;24.95;7.20;;;;;;;;;;5030525;28;20054;-68
2022/07/03 06:57:32;;;;;;;39.05;8.15;;;;;;;;;;5030405;28;20037;-68
2022/07/03 07:00:38;;;;;;;36.88;8.60;;;;;;;;;;5030829;28;20415;-68
2022/07/03 07:03:42;;;;;;;34.08;7.72;;;;;;;;;;5030611;28;20037;-68
2022/07/03 07:06:47;;;;;;;30.15;6.90;;;;;;;;;;5030523;28;20393;-68
2022/07/03 07:09:51;;;;;;;34.67;7.75;;;;;;;;;;5030720;28;20044;-68
2022/07/03 07:12:55;;;;;;;24.85;7.40;;;;;;;;;;5030820;28;20054;-68
2022/07/03 07:16:00;;;;;;;39.38;7.80;;;;;;;;;;5030160;28;20049;-68
2022/07/03 07:19:04;;;;;;;37.33;7.60;;;;;;;;;;5030682;28;20513;-68
2022/07/03 07:22:09;;;;;;;31.95;6.25;;;;;;;;;;5030872;28;20041;-68
2022/07/03 07:25:13;;;;;;;34.00;6.47;;;;;;;;;;5034407;28;20040;-67
2022/07/03 07:28:17;;;;;;;29.13;6.05;;;;;;;;;;5021875;28;20044;-68
2022/07/03 07:31:22;;;;;;;27.45;6.93;;;;;;;;;;5022091;28;20049;-67
2022/07/03 07:34:26;;;;;;;27.25;6.32;;;;;;;;;;5033916;28;20048;-68
2022/07/03 07:37:30;;;;;;;22.20;6.70;;;;;;;;;;5034034;28;20400;-68
2022/07/03 07:40:35;;;;;;;16.27;6.75;;;;;;;;;;5033930;28;20036;-68
2022/07/03 07:43:39;;;;;;;19.77;5.55;;;;;;;;;;5034034;28;20393;-67
2022/07/03 07:46:43;;;;;;;16.52;5.30;;;;;;;;;;5033698;28;20037;-68
2022/07/03 07:49:49;;;;;;;17.52;5.93;;;;;;;;;;5021777;28;20041;-68
2022/07/03 07:52:53;;;;;;;16.30;5.35;;;;;;;;;;5034022;28;20056;-68
2022/07/03 07:55:58;;;;;;;22.58;5.65;;;;;;;;;;5033391;28;20048;-68
2022/07/03 07:59:02;;;;;;;35.33;9.43;;;;;;;;;;5033667;28;20045;-68
2022/07/03 08:05:35;;;;;;;25.25;5.93;;;;;;;;;;5033875;28;20034;-68
2022/07/03 08:08:39;;;;;;;15.70;5.00;;;;;;;;;;5033575;28;20049;-68
2022/07/03 08:11:43;;;;;;;16.33;5.25;;;;;;;;;;5033669;28;20047;-68
2022/07/03 08:14:48;;;;;;;19.25;5.47;;;;;;;;;;5033189;28;20056;-68
2022/07/03 08:17:52;;;;;;;17.58;4.90;;;;;;;;;;5033295;28;20040;-68
2022/07/03 08:20:56;;;;;;;22.55;5.18;;;;;;;;;;5033186;28;20044;-68
2022/07/03 08:24:00;;;;;;;20.73;4.93;;;;;;;;;;5033520;28;20054;-68
2022/07/03 08:27:05;;;;;;;16.70;4.25;;;;;;;;;;5033315;28;20494;-68
2022/07/03 08:30:09;;;;;;;16.00;4.47;;;;;;;;;;5033237;28;20041;-68
2022/07/03 08:33:13;;;;;;;19.35;4.85;;;;;;;;;;5033011;28;20040;-68
2022/07/03 08:36:18;;;;;;;16.85;5.60;;;;;;;;;;5032546;28;20052;-68
2022/07/03 08:39:22;;;;;;;29.48;5.22;;;;;;;;;;5033028;28;20050;-68
2022/07/03 08:42:28;;;;;;;18.15;5.65;;;;;;;;;;5032711;28;20041;-68
2022/07/03 08:45:33;;;;;;;14.18;4.65;;;;;;;;;;5020186;28;20034;-68
2022/07/03 08:48:38;;;;;;;15.48;4.78;;;;;;;;;;5032742;28;20041;-68
2022/07/03 08:51:43;;;;;;;15.95;4.97;;;;;;;;;;5032365;28;20044;-68
2022/07/03 08:54:47;;;;;;;18.98;4.95;;;;;;;;;;5032293;28;20064;-68
2022/07/03 08:57:52;;;;;;;19.63;4.80;;;;;;;;;;5032268;28;20041;-68
2022/07/03 09:00:56;;;;;;;16.33;4.72;;;;;;;;;;5032393;28;20042;-68
2022/07/03 09:04:01;;;;;;;17.50;4.85;;;;;;;;;;5032528;28;20045;-68
2022/07/03 09:07:07;;;;;;;19.00;4.68;;;;;;;;;;5032503;28;20480;-68
2022/07/03 09:10:12;;;;;;;20.25;4.07;;;;;;;;;;5032273;28;20029;-68
2022/07/03 09:13:17;;;;;;;22.20;5.13;;;;;;;;;;5032491;28;20040;-68
2022/07/03 09:16:21;;;;;;;25.60;5.22;;;;;;;;;;5032036;28;20136;-68
2022/07/03 09:19:47;;;;;;;18.48;4.60;;;;;;;;;;5032066;28;20041;-68
2022/07/03 09:22:51;;;;;;;20.60;5.38;;;;;;;;;;5032252;28;20396;-68
2022/07/03 09:26:02;;;;;;;13.88;4.90;;;;;;;;;;5032162;28;20037;-68
2022/07/03 09:29:09;;;;;;;18.88;5.10;;;;;;;;;;5031882;28;20034;-68
2022/07/03 09:32:12;;;;;;;18.65;5.47;;;;;;;;;;5031991;28;20025;-68
2022/07/03 09:35:22;;;;;;;16.65;4.85;;;;;;;;;;5031746;28;20357;-68
2022/07/03 09:38:27;;;;;;;27.13;5.15;;;;;;;;;;5019930;28;20037;-68
2022/07/03 09:41:50;;;;;;;21.70;4.85;;;;;;;;;;5032068;28;20041;-68
2022/07/03 09:44:54;;;;;;;24.10;5.05;;;;;;;;;;5019586;28;20511;-68
2022/07/03 09:47:58;;;;;;;15.15;4.32;;;;;;;;;;5031853;28;20048;-68
2022/07/03 09:51:15;;;;;;;23.17;4.95;;;;;;;;;;5031629;28;20036;-68
2022/07/03 09:54:19;;;;;;;12.70;4.10;;;;;;;;;;5031583;28;20037;-68
2022/07/03 09:57:25;;;;;;;13.63;4.65;;;;;;;;;;5031524;28;20393;-68
2022/07/03 10:00:31;;;;;;;19.50;4.78;;;;;;;;;;5031295;28;20037;-68
2022/07/03 10:03:35;;;;;;;15.57;4.15;;;;;;;;;;5031733;28;20037;-68
2022/07/03 10:06:59;;;;;;;18.83;4.80;;;;;;;;;;5031447;28;20421;-68
2022/07/03 10:10:03;;;;;;;14.70;4.90;;;;;;;;;;5031376;28;20029;-68
2022/07/03 10:13:07;;;;;;;20.75;5.45;;;;;;;;;;5031264;28;20420;-68
2022/07/03 10:16:12;;;;;;;20.17;5.57;;;;;;;;;;5030849;28;20057;-68
2022/07/03 10:19:27;;;;;;;14.98;4.57;;;;;;;;;;5031411;28;20033;-68
2022/07/03 10:22:31;;;;;;;12.82;4.85;;;;;;;;;;5031403;28;20493;-68
2022/07/03 10:25:36;;;;;;;13.50;4.72;;;;;;;;;;5030881;28;20029;-68
2022/07/03 10:28:41;;;;;;;10.77;5.07;;;;;;;;;;5030977;28;20041;-68
2022/07/03 10:31:48;;;;;;;12.85;5.18;;;;;;;;;;5031200;28;20042;-68
2022/07/03 10:34:53;;;;;;;17.83;5.82;;;;;;;;;;5030744;28;20052;-68
2022/07/03 10:38:04;;;;;;;15.45;5.10;;;;;;;;;;5030896;28;20477;-68
2022/07/03 10:44:47;;;;;;;12.73;4.40;;;;;;;;;;5031100;28;20037;-68
2022/07/03 10:47:51;;;;;;;14.65;4.90;;;;;;;;;;5030749;28;20056;-68
2022/07/03 10:51:12;;;;;;;24.10;5.60;;;;;;;;;;5031018;28;20037;-68
2022/07/03 10:54:19;;;;;;;20.48;5.68;;;;;;;;;;5030986;28;20041;-68
2022/07/03 10:57:23;;;;;;;18.67;5.35;;;;;;;;;;5031268;28;20052;-68
2022/07/03 11:00:27;;;;;;;15.73;5.57;;;;;;;;;;5035029;28;20037;-68
2022/07/03 11:03:51;;;;;;;19.52;5.00;;;;;;;;;;5034751;28;20366;-68
2022/07/03 11:06:58;;;;;;;18.02;5.15;;;;;;;;;;5034713;28;20045;-68
2022/07/03 11:10:15;;;;;;;19.90;5.35;;;;;;;;;;5034786;28;20680;-67
2022/07/03 11:13:21;;;;;;;15.65;5.40;;;;;;;;;;5034814;28;20036;-68
2022/07/03 11:16:25;;;;;;;14.07;5.32;;;;;;;;;;5033955;28;20052;-68
2022/07/03 11:19:30;;;;;;;13.48;5.68;;;;;;;;;;5034744;28;20042;-68
2022/07/03 11:22:44;;;;;;;14.55;5.32;;;;;;;;;;5034551;28;20041;-68
2022/07/03 11:25:49;;;;;;;17.63;5.47;;;;;;;;;;5034084;28;20046;-68
2022/07/03 11:28:54;;;;;;;14.35;5.03;;;;;;;;;;5034319;28;20046;-68
2022/07/03 11:32:18;;;;;;;22.73;5.57;;;;;;;;;;5034252;28;20029;-68
2022/07/03 11:35:41;;;;;;;21.38;5.35;;;;;;;;;;5034097;28;20528;-67
2022/07/03 11:38:46;;;;;;;14.18;5.07;;;;;;;;;;5034038;28;20037;-68
2022/07/03 11:41:50;;;;;;;16.98;5.60;;;;;;;;;;5034109;28;20478;-68
2022/07/03 11:44:54;;;;;;;13.23;5.70;;;;;;;;;;5034198;28;20033;-68
2022/07/03 11:47:59;;;;;;;13.27;5.30;;;;;;;;;;5033819;28;20378;-68
2022/07/03 11:51:04;;;;;;;13.88;4.78;;;;;;;;;;5034113;28;20100;-68
2022/07/03 11:54:08;;;;;;;16.15;5.88;;;;;;;;;;5034069;28;20038;-68
2022/07/03 11:57:14;;;;;;;17.92;5.63;;;;;;;;;;5033784;28;20037;-68
2022/07/03 12:00:18;;;;;;;16.15;5.97;;;;;;;;;;5033565;28;20496;-68
2022/07/03 12:03:25;;;;;;;21.77;5.80;;;;;;;;;;5033873;28;20385;-68
2022/07/03 12:06:35;;;;;;;15.75;5.65;;;;;;;;;;5033635;28;20045;-68
2022/07/03 12:09:40;;;;;;;15.75;5.30;;;;;;;;;;5033380;28;20029;-68
2022/07/03 12:12:44;;;;;;;16.23;5.53;;;;;;;;;;5033478;28;20087;-68
2022/07/03 12:15:48;;;;;;;20.85;5.60;;;;;;;;;;5033324;28;20053;-68
2022/07/03 12:18:53;;;;;;;21.00;6.32;;;;;;;;;;5033388;28;20025;-68
2022/07/03 12:21:57;;;;;;;12.23;4.65;;;;;;;;;;5033496;28;20049;-67
2022/07/03 12:25:03;;;;;;;27.65;5.90;;;;;;;;;;5033285;28;20041;-68
2022/07/03 12:28:11;;;;;;;13.93;5.13;;;;;;;;;;5033436;28;20048;-68
2022/07/03 12:31:15;;;;;;;18.88;5.80;;;;;;;;;;5033134;28;20033;-68
2022/07/03 12:34:20;;;;;;;13.68;5.53;;;;;;;;;;5033186;28;20044;-68
2022/07/03 12:37:33;;;;;;;18.63;5.05;;;;;;;;;;5033257;28;20050;-68
2022/07/03 12:40:38;;;;;;;16.90;5.03;;;;;;;;;;5033071;28;20037;-68
2022/07/03 12:43:43;;;;;;;12.55;5.13;;;;;;;;;;5033171;28;20042;-68
2022/07/03 12:46:48;;;;;;;15.75;5.15;;;;;;;;;;5032785;28;20525;-68
2022/07/03 12:49:56;;;;;;;18.52;4.63;;;;;;;;;;5032998;28;20472;-68
2022/07/03 12:53:01;;;;;;;20.65;4.90;;;;;;;;;;5032783;28;20046;-68
2022/07/03 12:56:06;;;;;;;17.92;4.68;;;;;;;;;;5032482;28;20049;-68
2022/07/03 12:59:27;;;;;;;26.90;5.15;;;;;;;;;;5032394;28;20037;-68
2022/07/03 13:02:32;;;;;;;12.32;4.03;;;;;;;;;;5032476;28;20045;-69
2022/07/03 13:05:42;;;;;;;16.05;4.93;;;;;;;;;;5020364;28;20041;-68
2022/07/03 13:09:05;;;;;;;18.30;5.25;;;;;;;;;;5032738;28;20046;-68
2022/07/03 13:12:21;;;;;;;12.52;4.97;;;;;;;;;;5032252;28;20037;-68
2022/07/03 13:15:26;;;;;;;17.48;5.30;;;;;;;;;;5032097;28;20052;-68
2022/07/03 13:18:30;;;;;;;19.67;4.65;;;;;;;;;;5032210;28;20035;-68
2022/07/03 13:21:35;;;;;;;18.30;5.45;;;;;;;;;;5031917;28;20037;-68
2022/07/03 13:24:39;;;;;;;14.52;4.20;;;;;;;;;;5032215;28;20037;-68
2022/07/03 13:27:45;;;;;;;15.25;3.70;;;;;;;;;;5031878;28;20037;-68
2022/07/03 13:30:49;;;;;;;14.90;3.47;;;;;;;;;;5032015;28;20033;-68
2022/07/03 13:33:53;;;;;;;10.43;3.25;;;;;;;;;;5032084;28;20050;-67
2022/07/03 13:36:58;;;;;;;16.58;3.88;;;;;;;;;;5031750;28;20041;-68
2022/07/03 13:40:03;;;;;;;12.57;3.90;;;;;;;;;;5031565;28;20397;-68
2022/07/03 13:43:08;;;;;;;14.77;3.67;;;;;;;;;;5031604;28;20045;-68
2022/07/03 13:46:12;;;;;;;11.57;3.42;;;;;;;;;;5031770;28;20065;-68
2022/07/03 13:49:16;;;;;;;11.23;3.45;;;;;;;;;;5031467;28;20042;-68
2022/07/03 13:52:20;;;;;;;16.48;3.97;;;;;;;;;;5031449;28;20037;-68
2022/07/03 13:55:24;;;;;;;14.15;4.18;;;;;;;;;;5031193;28;20045;-68
2022/07/03 13:58:29;;;;;;;18.17;3.88;;;;;;;;;;5031576;28;20043;-68
2022/07/03 14:01:33;;;;;;;12.27;3.42;;;;;;;;;;5031348;28;20037;-68
2022/07/03 14:04:38;;;;;;;15.57;4.15;;;;;;;;;;5031256;28;20044;-68
2022/07/03 14:07:42;;;;;;;10.40;3.17;;;;;;;;;;5031485;28;20049;-68
2022/07/03 14:10:46;;;;;;;8.50;3.20;;;;;;;;;;5031159;28;20097;-68
2022/07/03 14:13:51;;;;;;;9.23;3.33;;;;;;;;;;5031248;28;20037;-68
2022/07/03 14:16:55;;;;;;;16.40;6.07;;;;;;;;;;5019084;28;20041;-68
2022/07/03 14:19:59;;;;;;;14.00;4.13;;;;;;;;;;5031256;28;20033;-67
2022/07/03 14:23:04;;;;;;;13.23;3.83;;;;;;;;;;5030978;28;20404;-67
2022/07/03 14:26:08;;;;;;;9.13;2.95;;;;;;;;;;5031289;28;20037;-67
2022/07/03 14:32:35;;;;;;;17.00;4.57;;;;;;;;;;5030269;28;20064;-68
2022/07/03 14:35:40;;;;;;;14.65;3.45;;;;;;;;;;5030633;28;20409;-68
2022/07/03 14:38:44;;;;;;;13.38;3.40;;;;;;;;;;5031031;28;20048;-68
2022/07/03 14:41:48;;;;;;;10.25;3.22;;;;;;;;;;5031002;28;20045;-68
2022/07/03 14:44:53;;;;;;;11.15;3.95;;;;;;;;;;5030603;28;20509;-68
2022/07/03 14:47:57;;;;;;;10.95;3.30;;;;;;;;;;5030738;28;20037;-68
2022/07/03 14:51:01;;;;;;;9.30;3.17;;;;;;;;;;5031041;28;20041;-68
2022/07/03 14:54:05;;;;;;;10.60;3.15;;;;;;;;;;5030558;28;20038;-68
2022/07/03 14:57:34;;;;;;;9.35;3.10;;;;;;;;;;5030780;28;20132;-68
2022/07/03 15:00:41;;;;;;;10.55;3.80;;;;;;;;;;5030814;28;20037;-68
2022/07/03 15:04:12;;;;;;;12.38;3.55;;;;;;;;;;5030660;28;20432;-68
2022/07/03 15:07:16;;;;;;;;;;;;;;;;;;5023929;28;20511;-68
2022/07/03 15:10:20;;;;;;;12.27;3.25;;;;;;;;;;5030565;28;19916;-68
2022/07/03 15:13:25;;;;;;;11.18;3.63;;;;;;;;;;5030599;28;20041;-68
2022/07/03 15:16:32;;;;;;;9.48;3.53;;;;;;;;;;5030148;28;20058;-67
2022/07/03 15:19:38;;;;;;;10.75;3.17;;;;;;;;;;5030660;28;20478;-67
2022/07/03 15:22:44;;;;;;;11.10;3.65;;;;;;;;;;5030360;28;20056;-68
2022/07/03 15:25:50;;;;;;;11.77;3.55;;;;;;;;;;5030516;28;20041;-68
2022/07/03 15:28:55;;;;;;;16.13;3.70;;;;;;;;;;5030160;28;20038;-68
2022/07/03 15:32:04;;;;;;;14.73;3.50;;;;;;;;;;5030136;28;20493;-68
2022/07/03 15:35:09;;;;;;;13.27;3.38;;;;;;;;;;5030444;28;20046;-68
2022/07/03 15:38:14;;;;;;;12.93;3.45;;;;;;;;;;5030235;28;20048;-68
2022/07/03 15:41:25;;;;;;;14.23;3.50;;;;;;;;;;5030500;28;20501;-68
2022/07/03 15:44:36;;;;;;;11.90;3.53;;;;;;;;;;5032553;28;20049;-67
2022/07/03 15:47:40;;;;;;;;;;;;;;;;;;5034450;28;20398;-68
2022/07/03 15:50:51;;;;;;;13.30;3.10;;;;;;;;;;5033975;28;19923;-68
2022/07/03 15:53:57;;;;;;;16.10;3.42;;;;;;;;;;5034081;28;20367;-68
2022/07/03 15:57:03;;;;;;;10.95;3.00;;;;;;;;;;5033547;28;20053;-68
2022/07/03 16:00:09;;;;;;;16.88;3.70;;;;;;;;;;5033896;28;20038;-68
2022/07/03 16:03:33;;;;;;;6.75;3.08;;;;;;;;;;5021097;28;20038;-68
2022/07/03 16:06:38;;;;;;;13.23;3.58;;;;;;;;;;5033795;28;20046;-68
2022/07/03 16:09:43;;;;;;;9.15;3.20;;;;;;;;;;5033915;28;20037;-68
2022/07/03 16:12:49;;;;;;;13.93;3.20;;;;;;;;;;5033798;28;20554;-67
2022/07/03 16:15:57;;;;;;;10.65;3.08;;;;;;;;;;5033083;28;20056;-67
2022/07/03 16:19:02;;;;;;;9.25;2.92;;;;;;;;;;5033547;28;20048;-67
2022/07/03 16:22:06;;;;;;;16.10;4.20;;;;;;;;;;5033400;28;20042;-67
2022/07/03 16:25:11;;;;;;;7.13;3.05;;;;;;;;;;5033410;28;20037;-67
2022/07/03 16:28:16;;;;;;;9.15;3.28;;;;;;;;;;5033303;28;20041;-67
2022/07/03 16:31:32;;;;;;;14.63;4.55;;;;;;;;;;5033380;28;20033;-68
2022/07/03 16:34:39;;;;;;;13.07;3.53;;;;;;;;;;5032973;28;20038;-67
2022/07/03 16:37:52;;;;;;;10.55;3.55;;;;;;;;;;5033002;28;20045;-68
2022/07/03 16:41:01;;;;;;;13.75;3.25;;;;;;;;;;5032888;28;20044;-67
2022/07/03 16:44:07;;;;;;;14.57;4.10;;;;;;;;;;5032923;28;20038;-67
2022/07/03 16:47:11;;;;;;;14.40;4.60;;;;;;;;;;5033133;28;20052;-67
2022/07/03 16:50:16;;;;;;;11.35;4.28;;;;;;;;;;5032851;28;20389;-67
2022/07/03 16:53:21;;;;;;;15.25;4.60;;;;;;;;;;5032720;28;20042;-67
2022/07/03 16:56:27;;;;;;;21.77;4.35;;;;;;;;;;5019509;28;20041;-67
2022/07/03 16:59:32;;;;;;;13.05;4.75;;;;;;;;;;5032498;28;20029;-68
2022/07/03 17:02:37;;;;;;;14.98;4.53;;;;;;;;;;5032382;28;20061;-68
2022/07/03 17:05:41;;;;;;;16.25;5.25;;;;;;;;;;5032380;28;20547;-68
2022/07/03 17:08:46;;;;;;;12.80;4.97;;;;;;;;;;5032700;28;20052;-68
2022/07/03 17:11:51;;;;;;;14.10;5.25;;;;;;;;;;5032680;28;20038;-68
2022/07/03 17:14:55;;;;;;;18.33;6.68;;;;;;;;;;5019795;28;20037;-68
2022/07/03 17:18:03;;;;;;;17.38;5.45;;;;;;;;;;5032103;28;20052;-68
2022/07/03 17:21:08;;;;;;;15.80;5.15;;;;;;;;;;5032068;28;20040;-68
2022/07/03 17:24:13;;;;;;;23.05;5.30;;;;;;;;;;5031658;28;20041;-67
2022/07/03 17:27:20;;;;;;;14.45;4.68;;;;;;;;;;5032187;28;20124;-67
2022/07/03 17:30:35;;;;;;;17.10;4.85;;;;;;;;;;5032002;28;20034;-67
2022/07/03 17:33:43;;;;;;;19.30;4.57;;;;;;;;;;5031842;28;20393;-67
2022/07/03 17:36:49;;;;;;;15.10;4.57;;;;;;;;;;5031788;28;20049;-67
2022/07/03 17:39:54;;;;;;;20.65;4.68;;;;;;;;;;5031741;28;20494;-68
2022/07/03 17:43:00;;;;;;;24.77;5.13;;;;;;;;;;5031570;28;20128;-68
2022/07/03 17:46:05;;;;;;;21.25;4.95;;;;;;;;;;5031464;28;20029;-68
2022/07/03 17:49:11;;;;;;;16.52;4.88;;;;;;;;;;5031890;28;20041;-68
2022/07/03 17:52:15;;;;;;;14.60;5.10;;;;;;;;;;5031616;28;20536;-68
2022/07/03 17:55:20;;;;;;;20.15;5.68;;;;;;;;;;5031267;28;20065;-68
2022/07/03 17:58:28;;;;;;;19.02;4.32;;;;;;;;;;5031326;28;20037;-68
2022/07/03 18:01:32;;;;;;;19.65;4.82;;;;;;;;;;5031547;28;20037;-68
2022/07/03 18:04:36;;;;;;;18.27;5.50;;;;;;;;;;5031417;28;20041;-68
2022/07/03 18:07:46;;;;;;;11.90;3.70;;;;;;;;;;5030991;28;20037;-68
2022/07/03 18:10:58;;;;;;;12.73;4.45;;;;;;;;;;5031190;28;20121;-68
2022/07/03 18:14:05;;;;;;;15.43;3.92;;;;;;;;;;5030888;28;20041;-68
2022/07/03 18:17:13;;;;;;;18.27;3.50;;;;;;;;;;5030911;28;20042;-67
2022/07/03 18:20:18;;;;;;;12.35;4.00;;;;;;;;;;5031082;28;20061;-68
2022/07/03 18:23:24;;;;;;;14.57;4.13;;;;;;;;;;5030870;28;20052;-68
2022/07/03 18:26:30;;;;;;;20.48;3.70;;;;;;;;;;5030902;28;20045;-67
2022/07/03 18:29:37;;;;;;;12.43;3.65;;;;;;;;;;5031134;28;20049;-67